sensor_id;sensor_type;location;lat;lon;timestamp;P1;durP1;ratioP1;P2;durP2;ratioP2
69744;SDS011;57015;50.120;-5.168;2023-10-08T00:01:18;4.97;;;1.40;;
69744;SDS011;57015;50.120;-5.168;2023-10-08T00:03:47;5.47;;;1.20;;
69744;SDS011;57015;50.120;-5.168;2023-10-08T00:06:20;4.10;;;1.02;;
69744;SDS011;57015;50.120;-5.168;2023-10-08T00:08:46;3.90;;;1.00;;
69744;SDS011;57015;50.120;-5.168;2023-10-08T00:11:12;5.25;;;1.58;;
69744;SDS011;57015;50.120;-5.168;2023-10-08T00:13:41;2.92;;;1.15;;
69744;SDS011;57015;50.120;-5.168;2023-10-08T00:16:07;5.30;;;1.38;;
69744;SDS011;57015;50.120;-5.168;2023-10-08T00:18:37;3.13;;;1.00;;
69744;SDS011;57015;50.120;-5.168;2023-10-08T00:21:03;5.63;;;1.30;;
69744;SDS011;57015;50.120;-5.168;2023-10-08T00:23:35;5.32;;;1.83;;
69744;SDS011;57015;50.120;-5.168;2023-10-08T00:26:22;4.45;;;1.00;;
69744;SDS011;57015;50.120;-5.168;2023-10-08T00:29:04;4.38;;;1.20;;
69744;SDS011;57015;50.120;-5.168;2023-10-08T00:31:46;5.23;;;1.70;;
69744;SDS011;57015;50.120;-5.168;2023-10-08T00:34:14;4.35;;;1.38;;
69744;SDS011;57015;50.120;-5.168;2023-10-08T00:36:41;5.30;;;1.23;;
69744;SDS011;57015;50.120;-5.168;2023-10-08T00:39:07;5.05;;;1.05;;
69744;SDS011;57015;50.120;-5.168;2023-10-08T00:41:39;5.65;;;1.42;;
69744;SDS011;57015;50.120;-5.168;2023-10-08T00:44:07;6.40;;;1.70;;
69744;SDS011;57015;50.120;-5.168;2023-10-08T00:46:33;6.25;;;1.48;;
69744;SDS011;57015;50.120;-5.168;2023-10-08T00:49:07;3.38;;;1.13;;
69744;SDS011;57015;50.120;-5.168;2023-10-08T00:51:45;5.95;;;1.55;;
69744;SDS011;57015;50.120;-5.168;2023-10-08T00:54:10;4.60;;;1.10;;
69744;SDS011;57015;50.120;-5.168;2023-10-08T00:56:42;4.18;;;1.25;;
69744;SDS011;57015;50.120;-5.168;2023-10-08T00:59:23;6.70;;;1.60;;
69744;SDS011;57015;50.120;-5.168;2023-10-08T01:01:50;3.83;;;1.30;;
69744;SDS011;57015;50.120;-5.168;2023-10-08T01:04:20;8.37;;;1.93;;
69744;SDS011;57015;50.120;-5.168;2023-10-08T01:06:55;4.40;;;2.08;;
69744;SDS011;57015;50.120;-5.168;2023-10-08T01:09:26;6.20;;;1.88;;
69744;SDS011;57015;50.120;-5.168;2023-10-08T01:12:06;5.57;;;1.67;;
69744;SDS011;57015;50.120;-5.168;2023-10-08T01:14:34;5.38;;;1.48;;
69744;SDS011;57015;50.120;-5.168;2023-10-08T01:16:59;7.53;;;1.40;;
69744;SDS011;57015;50.120;-5.168;2023-10-08T01:19:25;4.43;;;1.87;;
69744;SDS011;57015;50.120;-5.168;2023-10-08T01:21:52;4.90;;;1.80;;
69744;SDS011;57015;50.120;-5.168;2023-10-08T01:24:17;2.87;;;1.03;;
69744;SDS011;57015;50.120;-5.168;2023-10-08T01:26:44;6.18;;;1.73;;
69744;SDS011;57015;50.120;-5.168;2023-10-08T01:29:10;4.50;;;1.70;;
69744;SDS011;57015;50.120;-5.168;2023-10-08T01:31:45;6.38;;;2.13;;
69744;SDS011;57015;50.120;-5.168;2023-10-08T01:34:18;5.13;;;2.10;;
69744;SDS011;57015;50.120;-5.168;2023-10-08T01:36:44;6.43;;;1.70;;
69744;SDS011;57015;50.120;-5.168;2023-10-08T01:39:10;4.60;;;1.70;;
69744;SDS011;57015;50.120;-5.168;2023-10-08T01:41:44;4.20;;;1.50;;
69744;SDS011;57015;50.120;-5.168;2023-10-08T01:44:09;5.65;;;1.60;;
69744;SDS011;57015;50.120;-5.168;2023-10-08T01:46:35;5.03;;;2.00;;
69744;SDS011;57015;50.120;-5.168;2023-10-08T01:49:01;8.32;;;1.75;;
69744;SDS011;57015;50.120;-5.168;2023-10-08T01:51:33;3.60;;;1.23;;
69744;SDS011;57015;50.120;-5.168;2023-10-08T01:54:03;5.68;;;1.90;;
69744;SDS011;57015;50.120;-5.168;2023-10-08T01:56:36;5.25;;;2.28;;
69744;SDS011;57015;50.120;-5.168;2023-10-08T01:59:02;5.68;;;1.90;;
69744;SDS011;57015;50.120;-5.168;2023-10-08T02:01:29;6.72;;;1.90;;
69744;SDS011;57015;50.120;-5.168;2023-10-08T02:03:54;4.87;;;2.37;;
69744;SDS011;57015;50.120;-5.168;2023-10-08T02:06:20;5.93;;;2.40;;
69744;SDS011;57015;50.120;-5.168;2023-10-08T02:08:46;4.95;;;2.42;;
69744;SDS011;57015;50.120;-5.168;2023-10-08T02:11:12;4.97;;;2.03;;
69744;SDS011;57015;50.120;-5.168;2023-10-08T02:13:40;7.22;;;2.45;;
69744;SDS011;57015;50.120;-5.168;2023-10-08T02:16:07;7.20;;;2.20;;
69744;SDS011;57015;50.120;-5.168;2023-10-08T02:18:32;9.23;;;2.07;;
69744;SDS011;57015;50.120;-5.168;2023-10-08T02:20:58;5.03;;;1.93;;
69744;SDS011;57015;50.120;-5.168;2023-10-08T02:23:24;4.97;;;2.00;;
69744;SDS011;57015;50.120;-5.168;2023-10-08T02:25:49;4.37;;;1.80;;
69744;SDS011;57015;50.120;-5.168;2023-10-08T02:28:14;4.20;;;1.50;;
69744;SDS011;57015;50.120;-5.168;2023-10-08T02:30:41;6.10;;;1.67;;
69744;SDS011;57015;50.120;-5.168;2023-10-08T02:33:07;7.38;;;1.60;;
69744;SDS011;57015;50.120;-5.168;2023-10-08T02:35:43;4.53;;;1.48;;
69744;SDS011;57015;50.120;-5.168;2023-10-08T02:38:10;4.43;;;1.87;;
69744;SDS011;57015;50.120;-5.168;2023-10-08T02:40:38;4.13;;;1.60;;
69744;SDS011;57015;50.120;-5.168;2023-10-08T02:43:09;5.00;;;1.80;;
69744;SDS011;57015;50.120;-5.168;2023-10-08T02:45:36;3.83;;;1.77;;
69744;SDS011;57015;50.120;-5.168;2023-10-08T02:48:04;5.85;;;1.70;;
69744;SDS011;57015;50.120;-5.168;2023-10-08T02:50:37;3.83;;;1.77;;
69744;SDS011;57015;50.120;-5.168;2023-10-08T02:53:05;5.30;;;1.40;;
69744;SDS011;57015;50.120;-5.168;2023-10-08T02:55:36;4.25;;;1.38;;
69744;SDS011;57015;50.120;-5.168;2023-10-08T02:58:12;3.97;;;1.50;;
69744;SDS011;57015;50.120;-5.168;2023-10-08T03:00:45;5.38;;;1.70;;
69744;SDS011;57015;50.120;-5.168;2023-10-08T03:03:14;3.07;;;1.30;;
69744;SDS011;57015;50.120;-5.168;2023-10-08T03:05:47;4.32;;;1.50;;
69744;SDS011;57015;50.120;-5.168;2023-10-08T03:08:14;3.75;;;0.90;;
69744;SDS011;57015;50.120;-5.168;2023-10-08T03:10:45;5.07;;;2.10;;
69744;SDS011;57015;50.120;-5.168;2023-10-08T03:13:10;4.60;;;1.50;;
69744;SDS011;57015;50.120;-5.168;2023-10-08T03:15:38;3.33;;;1.35;;
69744;SDS011;57015;50.120;-5.168;2023-10-08T03:18:06;3.20;;;1.50;;
69744;SDS011;57015;50.120;-5.168;2023-10-08T03:20:38;5.97;;;1.30;;
69744;SDS011;57015;50.120;-5.168;2023-10-08T03:23:07;4.75;;;1.42;;
69744;SDS011;57015;50.120;-5.168;2023-10-08T03:25:51;4.80;;;1.42;;
69744;SDS011;57015;50.120;-5.168;2023-10-08T03:28:27;4.07;;;1.45;;
69744;SDS011;57015;50.120;-5.168;2023-10-08T03:30:57;4.03;;;1.00;;
69744;SDS011;57015;50.120;-5.168;2023-10-08T03:33:38;5.33;;;1.47;;
69744;SDS011;57015;50.120;-5.168;2023-10-08T03:36:04;5.25;;;1.00;;
69744;SDS011;57015;50.120;-5.168;2023-10-08T03:38:46;3.40;;;1.20;;
69744;SDS011;57015;50.120;-5.168;2023-10-08T03:41:17;3.03;;;1.20;;
69744;SDS011;57015;50.120;-5.168;2023-10-08T03:43:44;5.45;;;1.48;;
69744;SDS011;57015;50.120;-5.168;2023-10-08T03:46:26;5.22;;;1.40;;
69744;SDS011;57015;50.120;-5.168;2023-10-08T03:48:55;4.60;;;1.48;;
69744;SDS011;57015;50.120;-5.168;2023-10-08T03:51:22;5.63;;;1.60;;
69744;SDS011;57015;50.120;-5.168;2023-10-08T03:53:52;4.53;;;1.70;;
69744;SDS011;57015;50.120;-5.168;2023-10-08T03:56:31;3.20;;;1.30;;
69744;SDS011;57015;50.120;-5.168;2023-10-08T03:59:01;6.65;;;1.60;;
69744;SDS011;57015;50.120;-5.168;2023-10-08T04:01:37;3.60;;;1.42;;
69744;SDS011;57015;50.120;-5.168;2023-10-08T04:04:06;5.22;;;1.52;;
69744;SDS011;57015;50.120;-5.168;2023-10-08T04:06:37;3.70;;;1.67;;
69744;SDS011;57015;50.120;-5.168;2023-10-08T04:09:04;6.55;;;1.58;;
69744;SDS011;57015;50.120;-5.168;2023-10-08T04:11:45;3.25;;;1.20;;
69744;SDS011;57015;50.120;-5.168;2023-10-08T04:14:16;4.05;;;1.25;;
69744;SDS011;57015;50.120;-5.168;2023-10-08T04:16:52;4.10;;;1.02;;
69744;SDS011;57015;50.120;-5.168;2023-10-08T04:19:19;4.03;;;1.50;;
69744;SDS011;57015;50.120;-5.168;2023-10-08T04:21:46;4.53;;;1.30;;
69744;SDS011;57015;50.120;-5.168;2023-10-08T04:24:19;5.85;;;1.70;;
69744;SDS011;57015;50.120;-5.168;2023-10-08T04:26:46;4.17;;;1.63;;
69744;SDS011;57015;50.120;-5.168;2023-10-08T04:29:11;5.05;;;1.92;;
69744;SDS011;57015;50.120;-5.168;2023-10-08T04:31:41;4.13;;;1.35;;
69744;SDS011;57015;50.120;-5.168;2023-10-08T04:34:12;3.92;;;1.73;;
69744;SDS011;57015;50.120;-5.168;2023-10-08T04:36:44;7.00;;;2.10;;
69744;SDS011;57015;50.120;-5.168;2023-10-08T04:39:19;6.18;;;1.73;;
69744;SDS011;57015;50.120;-5.168;2023-10-08T04:41:48;6.22;;;1.95;;
69744;SDS011;57015;50.120;-5.168;2023-10-08T04:44:18;4.75;;;1.60;;
69744;SDS011;57015;50.120;-5.168;2023-10-08T04:46:46;5.13;;;1.90;;
69744;SDS011;57015;50.120;-5.168;2023-10-08T04:49:13;9.33;;;3.00;;
69744;SDS011;57015;50.120;-5.168;2023-10-08T04:52:02;6.60;;;1.92;;
69744;SDS011;57015;50.120;-5.168;2023-10-08T04:54:39;6.60;;;1.98;;
69744;SDS011;57015;50.120;-5.168;2023-10-08T04:57:06;4.75;;;1.83;;
69744;SDS011;57015;50.120;-5.168;2023-10-08T04:59:32;6.18;;;2.42;;
69744;SDS011;57015;50.120;-5.168;2023-10-08T05:02:02;5.10;;;1.80;;
69744;SDS011;57015;50.120;-5.168;2023-10-08T05:04:48;6.60;;;2.55;;
69744;SDS011;57015;50.120;-5.168;2023-10-08T05:07:17;6.43;;;1.95;;
69744;SDS011;57015;50.120;-5.168;2023-10-08T05:09:49;6.10;;;2.08;;
69744;SDS011;57015;50.120;-5.168;2023-10-08T05:12:36;6.70;;;1.95;;
69744;SDS011;57015;50.120;-5.168;2023-10-08T05:15:15;6.63;;;2.07;;
69744;SDS011;57015;50.120;-5.168;2023-10-08T05:17:41;5.68;;;2.05;;
69744;SDS011;57015;50.120;-5.168;2023-10-08T05:20:17;7.80;;;1.95;;
69744;SDS011;57015;50.120;-5.168;2023-10-08T05:23:06;5.87;;;2.00;;
69744;SDS011;57015;50.120;-5.168;2023-10-08T05:26:01;6.22;;;2.38;;
69744;SDS011;57015;50.120;-5.168;2023-10-08T05:28:33;6.32;;;2.20;;
69744;SDS011;57015;50.120;-5.168;2023-10-08T05:31:25;4.25;;;1.80;;
69744;SDS011;57015;50.120;-5.168;2023-10-08T05:34:11;6.15;;;2.40;;
69744;SDS011;57015;50.120;-5.168;2023-10-08T05:36:46;6.50;;;2.17;;
69744;SDS011;57015;50.120;-5.168;2023-10-08T05:39:29;8.40;;;1.92;;
69744;SDS011;57015;50.120;-5.168;2023-10-08T05:42:05;5.97;;;2.15;;
69744;SDS011;57015;50.120;-5.168;2023-10-08T05:44:56;5.40;;;1.98;;
69744;SDS011;57015;50.120;-5.168;2023-10-08T05:47:50;4.78;;;1.83;;
69744;SDS011;57015;50.120;-5.168;2023-10-08T05:50:34;6.13;;;1.90;;
69744;SDS011;57015;50.120;-5.168;2023-10-08T05:53:20;6.72;;;2.30;;
69744;SDS011;57015;50.120;-5.168;2023-10-08T05:55:55;4.90;;;1.98;;
69744;SDS011;57015;50.120;-5.168;2023-10-08T05:58:40;7.35;;;2.00;;
69744;SDS011;57015;50.120;-5.168;2023-10-08T06:01:11;6.13;;;2.95;;
69744;SDS011;57015;50.120;-5.168;2023-10-08T06:03:51;7.03;;;2.17;;
69744;SDS011;57015;50.120;-5.168;2023-10-08T06:06:28;7.38;;;2.38;;
69744;SDS011;57015;50.120;-5.168;2023-10-08T06:09:03;5.28;;;2.08;;
69744;SDS011;57015;50.120;-5.168;2023-10-08T06:11:46;6.22;;;2.22;;
69744;SDS011;57015;50.120;-5.168;2023-10-08T06:14:30;5.93;;;2.20;;
69744;SDS011;57015;50.120;-5.168;2023-10-08T06:17:17;6.33;;;2.23;;
69744;SDS011;57015;50.120;-5.168;2023-10-08T06:19:59;7.30;;;2.67;;
69744;SDS011;57015;50.120;-5.168;2023-10-08T06:22:35;5.82;;;2.15;;
69744;SDS011;57015;50.120;-5.168;2023-10-08T06:25:01;6.97;;;2.25;;
69744;SDS011;57015;50.120;-5.168;2023-10-08T06:27:43;5.60;;;2.25;;
69744;SDS011;57015;50.120;-5.168;2023-10-08T06:30:10;5.63;;;1.93;;
69744;SDS011;57015;50.120;-5.168;2023-10-08T06:32:42;6.15;;;2.22;;
69744;SDS011;57015;50.120;-5.168;2023-10-08T06:35:10;6.50;;;1.95;;
69744;SDS011;57015;50.120;-5.168;2023-10-08T06:37:45;4.97;;;2.03;;
69744;SDS011;57015;50.120;-5.168;2023-10-08T06:40:14;5.03;;;2.10;;
69744;SDS011;57015;50.120;-5.168;2023-10-08T06:42:59;5.73;;;1.93;;
69744;SDS011;57015;50.120;-5.168;2023-10-08T06:45:28;8.52;;;2.30;;
69744;SDS011;57015;50.120;-5.168;2023-10-08T06:47:56;5.32;;;1.90;;
69744;SDS011;57015;50.120;-5.168;2023-10-08T06:50:22;5.93;;;2.30;;
69744;SDS011;57015;50.120;-5.168;2023-10-08T06:52:47;4.83;;;1.97;;
69744;SDS011;57015;50.120;-5.168;2023-10-08T06:55:14;5.75;;;2.30;;
69744;SDS011;57015;50.120;-5.168;2023-10-08T06:57:42;6.40;;;2.30;;
69744;SDS011;57015;50.120;-5.168;2023-10-08T07:00:08;5.63;;;2.00;;
69744;SDS011;57015;50.120;-5.168;2023-10-08T07:02:37;5.20;;;1.70;;
69744;SDS011;57015;50.120;-5.168;2023-10-08T07:05:04;6.35;;;1.85;;
69744;SDS011;57015;50.120;-5.168;2023-10-08T07:07:34;5.57;;;1.70;;
69744;SDS011;57015;50.120;-5.168;2023-10-08T07:10:05;8.27;;;2.00;;
69744;SDS011;57015;50.120;-5.168;2023-10-08T07:12:35;5.82;;;1.85;;
69744;SDS011;57015;50.120;-5.168;2023-10-08T07:15:01;5.33;;;2.03;;
69744;SDS011;57015;50.120;-5.168;2023-10-08T07:17:28;5.75;;;2.28;;
69744;SDS011;57015;50.120;-5.168;2023-10-08T07:20:05;7.88;;;2.45;;
69744;SDS011;57015;50.120;-5.168;2023-10-08T07:22:38;6.20;;;2.40;;
69744;SDS011;57015;50.120;-5.168;2023-10-08T07:25:04;8.03;;;2.37;;
69744;SDS011;57015;50.120;-5.168;2023-10-08T07:27:33;6.95;;;2.00;;
69744;SDS011;57015;50.120;-5.168;2023-10-08T07:30:03;9.17;;;2.20;;
69744;SDS011;57015;50.120;-5.168;2023-10-08T07:32:44;6.70;;;2.00;;
69744;SDS011;57015;50.120;-5.168;2023-10-08T07:35:09;9.25;;;2.90;;
69744;SDS011;57015;50.120;-5.168;2023-10-08T07:37:50;7.78;;;2.03;;
69744;SDS011;57015;50.120;-5.168;2023-10-08T07:40:18;8.40;;;1.92;;
69744;SDS011;57015;50.120;-5.168;2023-10-08T07:42:46;11.30;;;2.73;;
69744;SDS011;57015;50.120;-5.168;2023-10-08T07:45:16;6.82;;;2.50;;
69744;SDS011;57015;50.120;-5.168;2023-10-08T07:47:42;5.80;;;1.90;;
69744;SDS011;57015;50.120;-5.168;2023-10-08T07:50:08;5.33;;;2.27;;
69744;SDS011;57015;50.120;-5.168;2023-10-08T07:52:37;6.63;;;2.05;;
69744;SDS011;57015;50.120;-5.168;2023-10-08T07:55:03;7.90;;;2.22;;
69744;SDS011;57015;50.120;-5.168;2023-10-08T07:57:32;5.20;;;1.98;;
69744;SDS011;57015;50.120;-5.168;2023-10-08T07:59:58;5.07;;;1.83;;
69744;SDS011;57015;50.120;-5.168;2023-10-08T08:02:43;6.78;;;1.92;;
69744;SDS011;57015;50.120;-5.168;2023-10-08T08:05:09;5.32;;;2.10;;
69744;SDS011;57015;50.120;-5.168;2023-10-08T08:07:34;7.70;;;2.20;;
69744;SDS011;57015;50.120;-5.168;2023-10-08T08:10:00;7.47;;;2.40;;
69744;SDS011;57015;50.120;-5.168;2023-10-08T08:12:26;7.82;;;2.15;;
69744;SDS011;57015;50.120;-5.168;2023-10-08T08:14:53;7.20;;;2.37;;
69744;SDS011;57015;50.120;-5.168;2023-10-08T08:17:19;9.70;;;2.90;;
69744;SDS011;57015;50.120;-5.168;2023-10-08T08:19:47;13.23;;;3.00;;
69744;SDS011;57015;50.120;-5.168;2023-10-08T08:22:14;8.02;;;2.58;;
69744;SDS011;57015;50.120;-5.168;2023-10-08T08:24:46;8.63;;;2.73;;
69744;SDS011;57015;50.120;-5.168;2023-10-08T08:27:12;9.05;;;2.72;;
69744;SDS011;57015;50.120;-5.168;2023-10-08T08:29:57;8.95;;;2.70;;
69744;SDS011;57015;50.120;-5.168;2023-10-08T08:32:35;5.13;;;2.13;;
69744;SDS011;57015;50.120;-5.168;2023-10-08T08:35:08;6.82;;;2.42;;
69744;SDS011;57015;50.120;-5.168;2023-10-08T08:37:34;9.17;;;2.30;;
69744;SDS011;57015;50.120;-5.168;2023-10-08T08:40:04;4.50;;;1.52;;
69744;SDS011;57015;50.120;-5.168;2023-10-08T08:42:50;6.22;;;2.13;;
69744;SDS011;57015;50.120;-5.168;2023-10-08T08:45:21;5.55;;;2.13;;
69744;SDS011;57015;50.120;-5.168;2023-10-08T08:47:49;6.18;;;1.80;;
69744;SDS011;57015;50.120;-5.168;2023-10-08T08:50:15;4.00;;;1.60;;
69744;SDS011;57015;50.120;-5.168;2023-10-08T08:52:42;3.50;;;1.73;;
69744;SDS011;57015;50.120;-5.168;2023-10-08T08:55:08;5.57;;;1.60;;
69744;SDS011;57015;50.120;-5.168;2023-10-08T08:57:46;4.38;;;1.63;;
69744;SDS011;57015;50.120;-5.168;2023-10-08T09:00:12;4.60;;;1.80;;
69744;SDS011;57015;50.120;-5.168;2023-10-08T09:02:39;6.63;;;2.08;;
69744;SDS011;57015;50.120;-5.168;2023-10-08T09:05:04;5.55;;;1.92;;
69744;SDS011;57015;50.120;-5.168;2023-10-08T09:10:37;5.68;;;1.98;;
69744;SDS011;57015;50.120;-5.168;2023-10-08T09:13:04;7.95;;;3.10;;
69744;SDS011;57015;50.120;-5.168;2023-10-08T09:15:30;8.10;;;3.22;;
69744;SDS011;57015;50.120;-5.168;2023-10-08T09:17:57;7.77;;;2.97;;
69744;SDS011;57015;50.120;-5.168;2023-10-08T09:20:25;9.10;;;3.40;;
69744;SDS011;57015;50.120;-5.168;2023-10-08T09:23:06;9.73;;;3.60;;
69744;SDS011;57015;50.120;-5.168;2023-10-08T09:25:35;7.82;;;2.70;;
69744;SDS011;57015;50.120;-5.168;2023-10-08T09:28:00;5.57;;;2.50;;
69744;SDS011;57015;50.120;-5.168;2023-10-08T09:30:27;7.33;;;2.87;;
69744;SDS011;57015;50.120;-5.168;2023-10-08T09:32:54;5.90;;;2.75;;
69744;SDS011;57015;50.120;-5.168;2023-10-08T09:35:20;7.67;;;2.53;;
69744;SDS011;57015;50.120;-5.168;2023-10-08T09:37:48;6.75;;;2.60;;
69744;SDS011;57015;50.120;-5.168;2023-10-08T09:40:13;7.50;;;2.73;;
69744;SDS011;57015;50.120;-5.168;2023-10-08T09:42:45;9.88;;;3.20;;
69744;SDS011;57015;50.120;-5.168;2023-10-08T09:45:12;7.97;;;3.17;;
69744;SDS011;57015;50.120;-5.168;2023-10-08T09:47:38;7.43;;;3.03;;
69744;SDS011;57015;50.120;-5.168;2023-10-08T09:50:12;7.82;;;2.97;;
69744;SDS011;57015;50.120;-5.168;2023-10-08T09:55:36;10.00;;;4.75;;
69744;SDS011;57015;50.120;-5.168;2023-10-08T09:58:02;12.43;;;5.30;;
69744;SDS011;57015;50.120;-5.168;2023-10-08T10:00:29;10.57;;;4.80;;
69744;SDS011;57015;50.120;-5.168;2023-10-08T10:03:04;9.27;;;4.18;;
69744;SDS011;57015;50.120;-5.168;2023-10-08T10:05:32;8.93;;;4.85;;
69744;SDS011;57015;50.120;-5.168;2023-10-08T10:07:57;9.77;;;4.28;;
69744;SDS011;57015;50.120;-5.168;2023-10-08T10:10:30;10.83;;;4.87;;
69744;SDS011;57015;50.120;-5.168;2023-10-08T10:13:03;10.90;;;4.45;;
69744;SDS011;57015;50.120;-5.168;2023-10-08T10:15:31;9.85;;;4.13;;
69744;SDS011;57015;50.120;-5.168;2023-10-08T10:18:26;8.43;;;3.60;;
69744;SDS011;57015;50.120;-5.168;2023-10-08T10:20:57;9.03;;;3.67;;
69744;SDS011;57015;50.120;-5.168;2023-10-08T10:26:22;8.90;;;3.30;;
69744;SDS011;57015;50.120;-5.168;2023-10-08T10:31:42;8.55;;;3.55;;
69744;SDS011;57015;50.120;-5.168;2023-10-08T10:34:12;8.43;;;4.03;;
69744;SDS011;57015;50.120;-5.168;2023-10-08T10:36:42;7.60;;;4.03;;
69744;SDS011;57015;50.120;-5.168;2023-10-08T10:39:09;7.78;;;4.20;;
69744;SDS011;57015;50.120;-5.168;2023-10-08T10:41:44;7.20;;;3.20;;
69744;SDS011;57015;50.120;-5.168;2023-10-08T10:44:11;9.13;;;3.90;;
69744;SDS011;57015;50.120;-5.168;2023-10-08T10:46:43;8.03;;;3.23;;
69744;SDS011;57015;50.120;-5.168;2023-10-08T10:49:16;6.65;;;2.92;;
69744;SDS011;57015;50.120;-5.168;2023-10-08T10:51:55;11.02;;;3.67;;
69744;SDS011;57015;50.120;-5.168;2023-10-08T10:54:22;7.97;;;3.40;;
69744;SDS011;57015;50.120;-5.168;2023-10-08T10:56:52;8.15;;;3.25;;
69744;SDS011;57015;50.120;-5.168;2023-10-08T10:59:32;6.73;;;3.10;;
69744;SDS011;57015;50.120;-5.168;2023-10-08T11:02:05;6.13;;;2.83;;
69744;SDS011;57015;50.120;-5.168;2023-10-08T11:04:34;5.45;;;2.22;;
69744;SDS011;57015;50.120;-5.168;2023-10-08T11:07:13;7.80;;;2.90;;
69744;SDS011;57015;50.120;-5.168;2023-10-08T11:09:41;7.10;;;2.50;;
69744;SDS011;57015;50.120;-5.168;2023-10-08T11:12:09;6.40;;;2.10;;
69744;SDS011;57015;50.120;-5.168;2023-10-08T11:14:41;5.22;;;2.08;;
69744;SDS011;57015;50.120;-5.168;2023-10-08T11:17:11;6.65;;;2.38;;
69744;SDS011;57015;50.120;-5.168;2023-10-08T11:19:44;5.00;;;2.05;;
69744;SDS011;57015;50.120;-5.168;2023-10-08T11:22:12;5.88;;;2.10;;
69744;SDS011;57015;50.120;-5.168;2023-10-08T11:24:41;3.80;;;1.73;;
69744;SDS011;57015;50.120;-5.168;2023-10-08T11:27:09;4.78;;;2.35;;
69744;SDS011;57015;50.120;-5.168;2023-10-08T11:29:45;6.15;;;2.03;;
69744;SDS011;57015;50.120;-5.168;2023-10-08T11:32:12;5.65;;;2.08;;
69744;SDS011;57015;50.120;-5.168;2023-10-08T11:34:50;5.95;;;2.50;;
69744;SDS011;57015;50.120;-5.168;2023-10-08T11:39:59;6.35;;;2.10;;
69744;SDS011;57015;50.120;-5.168;2023-10-08T11:42:33;6.53;;;2.00;;
69744;SDS011;57015;50.120;-5.168;2023-10-08T11:44:59;7.50;;;1.95;;
69744;SDS011;57015;50.120;-5.168;2023-10-08T11:47:27;5.07;;;2.50;;
69744;SDS011;57015;50.120;-5.168;2023-10-08T11:50:01;7.55;;;2.30;;
69744;SDS011;57015;50.120;-5.168;2023-10-08T11:52:38;5.75;;;2.22;;
69744;SDS011;57015;50.120;-5.168;2023-10-08T11:55:07;5.60;;;1.97;;
69744;SDS011;57015;50.120;-5.168;2023-10-08T11:57:33;7.20;;;1.90;;
69744;SDS011;57015;50.120;-5.168;2023-10-08T12:00:01;6.78;;;2.13;;
69744;SDS011;57015;50.120;-5.168;2023-10-08T12:02:41;6.03;;;2.10;;
69744;SDS011;57015;50.120;-5.168;2023-10-08T12:05:08;5.32;;;1.55;;
69744;SDS011;57015;50.120;-5.168;2023-10-08T12:07:44;6.30;;;2.10;;
69744;SDS011;57015;50.120;-5.168;2023-10-08T12:10:10;8.95;;;2.00;;
69744;SDS011;57015;50.120;-5.168;2023-10-08T12:12:36;5.63;;;1.65;;
69744;SDS011;57015;50.120;-5.168;2023-10-08T12:15:02;5.33;;;2.10;;
69744;SDS011;57015;50.120;-5.168;2023-10-08T12:17:28;6.18;;;1.63;;
69744;SDS011;57015;50.120;-5.168;2023-10-08T12:20:05;5.53;;;1.70;;
69744;SDS011;57015;50.120;-5.168;2023-10-08T12:22:48;6.20;;;2.25;;
69744;SDS011;57015;50.120;-5.168;2023-10-08T12:25:14;6.13;;;2.38;;
69744;SDS011;57015;50.120;-5.168;2023-10-08T12:27:39;6.20;;;1.83;;
69744;SDS011;57015;50.120;-5.168;2023-10-08T12:30:05;5.80;;;1.90;;
69744;SDS011;57015;50.120;-5.168;2023-10-08T12:32:35;6.03;;;1.80;;
69744;SDS011;57015;50.120;-5.168;2023-10-08T12:35:02;6.35;;;2.40;;
69744;SDS011;57015;50.120;-5.168;2023-10-08T12:37:28;6.07;;;1.92;;
69744;SDS011;57015;50.120;-5.168;2023-10-08T12:39:55;5.37;;;2.30;;
69744;SDS011;57015;50.120;-5.168;2023-10-08T12:42:36;5.35;;;2.45;;
69744;SDS011;57015;50.120;-5.168;2023-10-08T12:45:04;6.05;;;2.85;;
69744;SDS011;57015;50.120;-5.168;2023-10-08T12:47:37;6.57;;;2.30;;
69744;SDS011;57015;50.120;-5.168;2023-10-08T12:50:03;5.88;;;2.72;;
69744;SDS011;57015;50.120;-5.168;2023-10-08T12:52:32;7.23;;;3.67;;
69744;SDS011;57015;50.120;-5.168;2023-10-08T12:55:00;7.10;;;3.05;;
69744;SDS011;57015;50.120;-5.168;2023-10-08T12:57:29;7.82;;;3.28;;
69744;SDS011;57015;50.120;-5.168;2023-10-08T12:59:58;8.23;;;3.13;;
69744;SDS011;57015;50.120;-5.168;2023-10-08T13:02:24;7.85;;;3.78;;
69744;SDS011;57015;50.120;-5.168;2023-10-08T13:04:53;7.90;;;3.23;;
69744;SDS011;57015;50.120;-5.168;2023-10-08T13:07:24;5.93;;;2.80;;
69744;SDS011;57015;50.120;-5.168;2023-10-08T13:09:51;10.35;;;3.67;;
69744;SDS011;57015;50.120;-5.168;2023-10-08T13:12:17;8.52;;;2.97;;
69744;SDS011;57015;50.120;-5.168;2023-10-08T13:14:43;6.83;;;3.00;;
69744;SDS011;57015;50.120;-5.168;2023-10-08T13:17:10;6.03;;;3.20;;
69744;SDS011;57015;50.120;-5.168;2023-10-08T13:19:36;8.55;;;3.65;;
69744;SDS011;57015;50.120;-5.168;2023-10-08T13:22:02;7.07;;;3.43;;
69744;SDS011;57015;50.120;-5.168;2023-10-08T13:24:31;7.85;;;3.70;;
69744;SDS011;57015;50.120;-5.168;2023-10-08T13:26:57;6.90;;;3.17;;
69744;SDS011;57015;50.120;-5.168;2023-10-08T13:29:23;8.50;;;4.03;;
69744;SDS011;57015;50.120;-5.168;2023-10-08T13:31:51;7.43;;;3.47;;
69744;SDS011;57015;50.120;-5.168;2023-10-08T13:34:19;9.00;;;4.10;;
69744;SDS011;57015;50.120;-5.168;2023-10-08T13:36:44;9.70;;;3.30;;
69744;SDS011;57015;50.120;-5.168;2023-10-08T13:39:14;11.45;;;3.95;;
69744;SDS011;57015;50.120;-5.168;2023-10-08T13:41:43;9.02;;;4.05;;
69744;SDS011;57015;50.120;-5.168;2023-10-08T13:44:12;11.05;;;3.47;;
69744;SDS011;57015;50.120;-5.168;2023-10-08T13:46:38;9.63;;;4.17;;
69744;SDS011;57015;50.120;-5.168;2023-10-08T13:49:08;9.10;;;3.97;;
69744;SDS011;57015;50.120;-5.168;2023-10-08T13:51:35;9.30;;;4.20;;
69744;SDS011;57015;50.120;-5.168;2023-10-08T13:54:03;9.02;;;3.53;;
69744;SDS011;57015;50.120;-5.168;2023-10-08T13:56:31;9.10;;;4.13;;
69744;SDS011;57015;50.120;-5.168;2023-10-08T13:58:58;8.25;;;3.45;;
69744;SDS011;57015;50.120;-5.168;2023-10-08T14:01:40;7.53;;;3.30;;
69744;SDS011;57015;50.120;-5.168;2023-10-08T14:04:10;7.90;;;3.38;;
69744;SDS011;57015;50.120;-5.168;2023-10-08T14:06:36;8.57;;;3.20;;
69744;SDS011;57015;50.120;-5.168;2023-10-08T14:09:03;9.95;;;3.35;;
69744;SDS011;57015;50.120;-5.168;2023-10-08T14:11:37;10.90;;;3.25;;
69744;SDS011;57015;50.120;-5.168;2023-10-08T14:14:03;5.27;;;2.40;;
69744;SDS011;57015;50.120;-5.168;2023-10-08T14:16:36;7.00;;;3.20;;
69744;SDS011;57015;50.120;-5.168;2023-10-08T14:19:02;5.10;;;2.50;;
69744;SDS011;57015;50.120;-5.168;2023-10-08T14:21:30;5.63;;;2.35;;
69744;SDS011;57015;50.120;-5.168;2023-10-08T14:23:56;6.97;;;2.30;;
69744;SDS011;57015;50.120;-5.168;2023-10-08T14:26:27;6.05;;;2.17;;
69744;SDS011;57015;50.120;-5.168;2023-10-08T14:29:00;7.00;;;2.47;;
69744;SDS011;57015;50.120;-5.168;2023-10-08T14:31:33;6.35;;;2.10;;
69744;SDS011;57015;50.120;-5.168;2023-10-08T14:34:03;5.05;;;1.80;;
69744;SDS011;57015;50.120;-5.168;2023-10-08T14:36:45;4.37;;;1.90;;
69744;SDS011;57015;50.120;-5.168;2023-10-08T14:39:30;4.53;;;1.80;;
69744;SDS011;57015;50.120;-5.168;2023-10-08T14:42:14;6.95;;;1.88;;
69744;SDS011;57015;50.120;-5.168;2023-10-08T14:44:58;5.88;;;2.30;;
69744;SDS011;57015;50.120;-5.168;2023-10-08T14:47:23;9.53;;;2.40;;
69744;SDS011;57015;50.120;-5.168;2023-10-08T14:49:48;4.97;;;2.07;;
69744;SDS011;57015;50.120;-5.168;2023-10-08T14:52:14;4.73;;;1.67;;
69744;SDS011;57015;50.120;-5.168;2023-10-08T14:54:39;8.60;;;2.05;;
69744;SDS011;57015;50.120;-5.168;2023-10-08T14:57:06;6.13;;;2.50;;
69744;SDS011;57015;50.120;-5.168;2023-10-08T14:59:32;5.50;;;2.35;;
69744;SDS011;57015;50.120;-5.168;2023-10-08T15:01:58;4.33;;;1.67;;
69744;SDS011;57015;50.120;-5.168;2023-10-08T15:04:24;6.38;;;1.98;;
69744;SDS011;57015;50.120;-5.168;2023-10-08T15:06:57;4.80;;;1.58;;
69744;SDS011;57015;50.120;-5.168;2023-10-08T15:09:23;5.23;;;1.90;;